Time;durP1;ratioP1;P1;durP2;ratioP2;P2;SDS_P1;SDS_P2;PMS_P1;PMS_P2;Temp;Humidity;BMP_temperature;BMP_pressure;BME280_temperature;BME280_humidity;BME280_pressure;Samples;Min_cycle;Max_cycle;Signal;HPM_P1;HPM_P2
2022/02/02 00:02:32;;;;;;;;;;;;;;;;;;2196803;59;22793;-70
2022/02/02 00:05:17;;;;;;;;;;;;;;;;;;2197322;67;15633;-70
2022/02/02 00:07:56;;;;;;;;;;;;;;;;;;2196364;59;16629;-70
2022/02/02 00:13:32;;;;;;;;;;;;;;;;;;2195542;59;15141;-70
2022/02/02 00:16:13;;;;;;;;;;;;;;;;;;2196275;59;18171;-70
2022/02/02 00:18:54;;;;;;;;;;;;;;;;;;2194426;67;25259;-70
2022/02/02 00:21:43;;;;;;;;;;;;;;;;;;2197094;59;18031;-70
2022/02/02 00:24:23;;;;;;;;;;;;;;;;;;2196452;59;18939;-70
2022/02/02 00:27:00;;;;;;;;;;;;;;;;;;2197625;59;21976;-70
2022/02/02 00:29:38;;;;;;;;;;;;;;;;;;2195839;58;20872;-70
2022/02/02 00:32:18;;;;;;;;;;;;;;;;;;2197204;59;16376;-70
2022/02/02 00:34:54;;;;;;;;;;;;;;;;;;2196254;59;26941;-70
2022/02/02 00:37:27;;;;;;;;;;;;;;;;;;2196211;59;17598;-72
2022/02/02 00:40:00;;;;;;;;;;;;;;;;;;2196648;59;16342;-70
2022/02/02 00:42:33;;;;;;;;;;;;;;;;;;2196722;59;17790;-70
2022/02/02 00:45:07;;;;;;;;;;;;;;;;;;2195543;59;16142;-71
2022/02/02 00:47:43;;;;;;;;;;;;;;;;;;2196338;59;20494;-70
2022/02/02 00:50:19;;;;;;;;;;;;;;;;;;2197736;58;27029;-70
2022/02/02 00:52:52;;;;;;;;;;;;;;;;;;2196490;59;22092;-70
2022/02/02 00:55:25;;;;;;;;;;;;;;;;;;2196817;59;22657;-70
2022/02/02 00:57:59;;;;;;;;;;;;;;;;;;2196762;59;19768;-71
2022/02/02 01:00:32;;;;;;;;;;;;;;;;;;2196402;67;18916;-70
2022/02/02 01:03:05;;;;;;;;;;;;;;;;;;2196075;59;15568;-70
2022/02/02 01:05:41;;;;;;;;;;;;;;;;;;2195779;59;22961;-70
2022/02/02 01:11:19;;;;;;;;;;;;;;;;;;2197038;64;16380;-69
2022/02/02 01:19:41;;;;;;;;;;;;;;;;;;2202773;59;17856;-70
2022/02/02 01:22:19;;;;;;;;;;;;;;;;;;2198297;59;22863;-70
2022/02/02 01:27:50;;;;;;;;;;;;;;;;;;2196518;59;15082;-70
2022/02/02 01:30:24;;;;;;;;;;;;;;;;;;2196381;59;15978;-70
2022/02/02 01:32:57;;;;;;;;;;;;;;;;;;2199994;59;24667;-70
2022/02/02 01:35:30;;;;;;;;;;;;;;;;;;2195957;59;21032;-71
2022/02/02 01:38:06;;;;;;;;;;;;;;;;;;2196463;64;27827;-70
2022/02/02 01:40:44;;;;;;;;;;;;;;;;;;2197446;58;15986;-70
2022/02/02 01:43:21;;;;;;;;;;;;;;;;;;2206783;54;23425;-69
2022/02/02 01:45:58;;;;;;;;;;;;;;;;;;2207024;67;23512;-69
2022/02/02 01:48:36;;;;;;;;;;;;;;;;;;2209114;59;34608;-70
2022/02/02 01:51:30;;;;;;;;;;;;;;;;;;2209300;59;24347;-69
2022/02/02 01:54:17;;;;;;;;;;;;;;;;;;2203993;59;22965;-70
2022/02/02 01:56:50;;;;;;;;;;;;;;;;;;2203973;59;27461;-70
2022/02/02 01:59:37;;;;;;;;;;;;;;;;;;2203591;59;13012;-69
2022/02/02 02:02:11;;;;;;;;;;;;;;;;;;2202826;59;41502;-70
2022/02/02 02:04:44;;;;;;;;;;;;;;;;;;2204620;59;19066;-69
2022/02/02 02:07:17;;;;;;;;;;;;;;;;;;2205361;59;19879;-70
2022/02/02 02:09:54;;;;;;;;;;;;;;;;;;2203471;59;70483;-69
2022/02/02 02:12:32;;;;;;;;;;;;;;;;;;2204347;67;20673;-70
2022/02/02 02:15:08;;;;;;;;;;;;;;;;;;2205919;59;16172;-69
2022/02/02 02:17:42;;;;;;;;;;;;;;;;;;2204335;59;14771;-70
2022/02/02 02:20:15;;;;;;;;;;;;;;;;;;2206845;67;20559;-70
2022/02/02 02:22:51;;;;;;;;;;;;;;;;;;2205141;59;23095;-70
2022/02/02 02:25:26;;;;;;;;;;;;;;;;;;2205218;59;20310;-70
2022/02/02 02:28:07;;;;;;;;;;;;;;;;;;2203418;59;23028;-70
2022/02/02 02:30:48;;;;;;;;;;;;;;;;;;2204755;67;23650;-70
2022/02/02 02:36:42;;;;;;;;;;;;;;;;;;2204418;59;22297;-70
2022/02/02 02:56:26;;;;;;;;;;;;;;;;;;2195767;59;56393;-70
2022/02/02 02:59:05;;;;;;;;;;;;;;;;;;2202789;59;30667;-70
2022/02/02 03:02:26;;;;;;;;;;;;;;;;;;2203686;59;26090;-70
2022/02/02 03:30:32;;;;;;;;;;;;;;;;;;2206836;67;18331;-69
2022/02/02 03:34:38;;;;;;;;;;;;;;;;;;2206112;59;29840;-70
2022/02/02 03:56:14;;;;;;;;;;;;;;;;;;2204157;59;22890;-70
2022/02/02 03:59:01;;;;;;;;;;;;;;;;;;2204325;67;40082;-70
2022/02/02 04:01:50;;;;;;;;;;;;;;;;;;2204406;59;24440;-71
2022/02/02 04:04:41;;;;;;;;;;;;;;;;;;2205192;64;33728;-70
2022/02/02 04:07:18;;;;;;;;;;;;;;;;;;2204281;64;27722;-71
2022/02/02 04:09:52;;;;;;;;;;;;;;;;;;2205364;59;32857;-70
2022/02/02 04:12:41;;;;;;;;;;;;;;;;;;2205229;67;73515;-70
2022/02/02 04:52:08;;;;;;;;;;;;;;;;;;2205867;59;21953;-70
2022/02/02 04:54:49;;;;;;;;;;;;;;;;;;2205309;59;32795;-71
2022/02/02 04:57:56;;;;;;;;;;;;;;;;;;2204444;59;48777;-71
2022/02/02 05:06:08;;;;;;;;;;;;;;;;;;2204402;59;26076;-71
2022/02/02 05:08:48;;;;;;;;;;;;;;;;;;2204995;59;34012;-71
2022/02/02 05:20:21;;;;;;;;;;;;;;;;;;2210142;59;15769;-70
2022/02/02 05:43:49;;;;;;;;;;;;;;;;;;2209430;58;69713;-71
2022/02/02 05:49:10;;;;;;;;;;;;;;;;;;2211389;66;13676;-71
2022/02/02 05:51:49;;;;;;;;;;;;;;;;;;2209956;66;25363;-71
2022/02/02 05:54:25;;;;;;;;;;;;;;;;;;2211415;58;14477;-70
2022/02/02 05:56:58;;;;;;;;;;;;;;;;;;2210957;59;26721;-71
2022/02/02 05:59:32;;;;;;;;;;;;;;;;;;2208907;59;67546;-70
2022/02/02 06:02:05;;;;;;;;;;;;;;;;;;2211239;58;15527;-70
2022/02/02 06:04:43;;;;;;;;;;;;;;;;;;2210531;66;57378;-71
2022/02/02 06:07:19;;;;;;;;;;;;;;;;;;2209493;63;112321;-71
2022/02/02 06:09:52;;;;;;;;;;;;;;;;;;2209935;58;31732;-71
2022/02/02 06:12:26;;;;;;;;;;;;;;;;;;2211229;66;19921;-71
2022/02/02 06:15:07;;;;;;;;;;;;;;;;;;2209445;59;47640;-71
2022/02/02 06:17:43;;;;;;;;;;;;;;;;;;2220217;59;154611;-70
2022/02/02 06:20:17;;;;;;;;;;;;;;;;;;2211655;59;25171;-71
2022/02/02 06:23:01;;;;;;;;;;;;;;;;;;2210455;59;32739;-71
2022/02/02 06:25:35;;;;;;;;;;;;;;;;;;2211790;66;30244;-70
2022/02/02 06:28:09;;;;;;;;;;;;;;;;;;2210451;59;46377;-71
2022/02/02 06:30:43;;;;;;;;;;;;;;;;;;2209166;59;52518;-71
2022/02/02 06:33:17;;;;;;;;;;;;;;;;;;2206966;59;28293;-70
2022/02/02 06:35:54;;;;;;;;;;;;;;;;;;2208098;59;84247;-71
2022/02/02 06:38:30;;;;;;;;;;;;;;;;;;2210544;59;13215;-71
2022/02/02 06:41:04;;;;;;;;;;;;;;;;;;2210393;59;19053;-71
2022/02/02 06:43:37;;;;;;;;;;;;;;;;;;2206746;59;46547;-71
2022/02/02 06:46:11;;;;;;;;;;;;;;;;;;2209436;64;15201;-70
2022/02/02 06:48:44;;;;;;;;;;;;;;;;;;2208965;59;51675;-70
2022/02/02 06:51:26;;;;;;;;;;;;;;;;;;2212302;59;16895;-71
2022/02/02 06:54:07;;;;;;;;;;;;;;;;;;2209354;66;22435;-71
2022/02/02 06:56:49;;;;;;;;;;;;;;;;;;2212654;59;22743;-70
2022/02/02 06:59:37;;;;;;;;;;;;;;;;;;2207702;59;23785;-71
2022/02/02 07:02:24;;;;;;;;;;;;;;;;;;2207659;59;48472;-71
2022/02/02 07:08:06;;;;;;;;;;;;;;;;;;2207613;59;42895;-71
2022/02/02 07:10:59;;;;;;;;;;;;;;;;;;2209091;59;48960;-71
2022/02/02 07:13:42;;;;;;;;;;;;;;;;;;2208226;66;24901;-71
2022/02/02 07:16:30;;;;;;;;;;;;;;;;;;2209982;59;34989;-71
2022/02/02 07:19:13;;;;;;;;;;;;;;;;;;2206348;59;20011;-71
2022/02/02 07:22:04;;;;;;;;;;;;;;;;;;2207038;59;27238;-71
2022/02/02 07:25:02;;;;;;;;;;;;;;;;;;2207891;59;67272;-71
2022/02/02 07:30:30;;;;;;;;;;;;;;;;;;2207363;59;70424;-70
2022/02/02 07:33:12;;;;;;;;;;;;;;;;;;2205775;64;34500;-71
2022/02/02 07:35:59;;;;;;;;;;;;;;;;;;2208442;66;74783;-71
2022/02/02 07:38:37;;;;;;;;;;;;;;;;;;2207249;59;96196;-71
2022/02/02 07:41:15;;;;;;;;;;;;;;;;;;2207809;59;13700;-71
2022/02/02 07:43:51;;;;;;;;;;;;;;;;;;2210978;59;15411;-71
2022/02/02 07:46:27;;;;;;;;;;;;;;;;;;2210223;59;18795;-70
2022/02/02 07:49:02;;;;;;;;;;;;;;;;;;2212048;59;17399;-70
2022/02/02 07:51:36;;;;;;;;;;;;;;;;;;2211433;59;16986;-70
2022/02/02 07:54:17;;;;;;;;;;;;;;;;;;2213144;59;14536;-71
2022/02/02 07:56:51;;;;;;;;;;;;;;;;;;2213674;63;14115;-71
2022/02/02 07:59:35;;;;;;;;;;;;;;;;;;2212496;59;24035;-71
2022/02/02 08:02:09;;;;;;;;;;;;;;;;;;2212985;59;21093;-71
2022/02/02 08:04:42;;;;;;;;;;;;;;;;;;2213416;59;16729;-71
2022/02/02 08:07:22;;;;;;;;;;;;;;;;;;2212877;63;14293;-71
2022/02/02 08:10:06;;;;;;;;;;;;;;;;;;2212629;66;26767;-71
2022/02/02 08:12:47;;;;;;;;;;;;;;;;;;2213010;59;20620;-70
2022/02/02 08:15:26;;;;;;;;;;;;;;;;;;2213417;59;30908;-71
2022/02/02 08:17:59;;;;;;;;;;;;;;;;;;2212985;59;18995;-71
2022/02/02 08:20:32;;;;;;;;;;;;;;;;;;2213657;58;15958;-71
2022/02/02 08:23:05;;;;;;;;;;;;;;;;;;2212887;59;16613;-71
2022/02/02 08:25:40;;;;;;;;;;;;;;;;;;2211739;59;30141;-70
2022/02/02 08:28:14;;;;;;;;;;;;;;;;;;2213801;59;17600;-72
2022/02/02 08:30:51;;;;;;;;;;;;;;;;;;2212244;59;22585;-70
2022/02/02 08:33:27;;;;;;;;;;;;;;;;;;2211893;59;16606;-70
2022/02/02 08:36:03;;;;;;;;;;;;;;;;;;2211781;59;16264;-70
2022/02/02 08:38:45;;;;;;;;;;;;;;;;;;2213022;59;16742;-70
2022/02/02 08:41:24;;;;;;;;;;;;;;;;;;2212703;59;13437;-71
2022/02/02 08:44:01;;;;;;;;;;;;;;;;;;2211855;59;19697;-71
2022/02/02 08:46:40;;;;;;;;;;;;;;;;;;2212588;59;27260;-70
2022/02/02 08:49:15;;;;;;;;;;;;;;;;;;2213176;59;12500;-70
2022/02/02 08:51:49;;;;;;;;;;;;;;;;;;2210224;59;28820;-70
2022/02/02 08:54:31;;;;;;;;;;;;;;;;;;2212796;59;17151;-70
2022/02/02 09:00:06;;;;;;;;;;;;;;;;;;2207477;59;21330;-71
2022/02/02 09:02:55;;;;;;;;;;;;;;;;;;2209027;59;21699;-71
2022/02/02 09:05:26;;;;;;;;;;;;;;;;;;2211878;59;16024;-70
2022/02/02 09:07:59;;;;;;;;;;;;;;;;;;2212280;64;15984;-70
2022/02/02 09:24:48;;;;;;;;;;;;;;;;;;2212561;59;16977;-70
2022/02/02 09:33:38;;;;;;;;;;;;;;;;;;2210940;59;22440;-69
2022/02/02 09:36:14;;;;;;;;;;;;;;;;;;2211244;59;18737;-69
2022/02/02 09:38:48;;;;;;;;;;;;;;;;;;2213121;66;16476;-69
2022/02/02 09:41:36;;;;;;;;;;;;;;;;;;2212697;60;15297;-69
2022/02/02 09:44:12;;;;;;;;;;;;;;;;;;2210935;59;28649;-69
2022/02/02 09:46:55;;;;;;;;;;;;;;;;;;2211997;59;16323;-70
2022/02/02 09:49:36;;;;;;;;;;;;;;;;;;2211725;59;28053;-69
2022/02/02 09:52:14;;;;;;;;;;;;;;;;;;2210110;59;18754;-70
2022/02/02 09:54:58;;;;;;;;;;;;;;;;;;2212208;59;14648;-70
2022/02/02 09:57:51;;;;;;;;;;;;;;;;;;2210988;59;16367;-70
2022/02/02 10:00:58;;;;;;;;;;;;;;;;;;2212624;59;15212;-69
2022/02/02 10:06:18;;;;;;;;;;;;;;;;;;2213706;66;12734;-70
2022/02/02 10:09:21;;;;;;;;;;;;;;;;;;2213291;66;23523;-70
2022/02/02 10:12:30;;;;;;;;;;;;;;;;;;2212954;59;18930;-70
2022/02/02 10:15:04;;;;;;;;;;;;;;;;;;2205242;59;14544;-70
2022/02/02 10:17:37;;;;;;;;;;;;;;;;;;2205771;59;27817;-70
2022/02/02 10:20:20;;;;;;;;;;;;;;;;;;2213259;59;23545;-70
2022/02/02 10:22:54;;;;;;;;;;;;;;;;;;2213277;59;18701;-70
2022/02/02 10:25:32;;;;;;;;;;;;;;;;;;2211136;59;19313;-70
2022/02/02 10:28:13;;;;;;;;;;;;;;;;;;2211630;59;16945;-70
2022/02/02 10:30:47;;;;;;;;;;;;;;;;;;2212546;59;14809;-70
2022/02/02 10:33:21;;;;;;;;;;;;;;;;;;2211333;59;14424;-70
2022/02/02 10:35:57;;;;;;;;;;;;;;;;;;2212011;66;22643;-70
2022/02/02 10:38:38;;;;;;;;;;;;;;;;;;2213744;59;14615;-70
2022/02/02 10:41:26;;;;;;;;;;;;;;;;;;2211927;59;21957;-69
2022/02/02 10:44:02;;;;;;;;;;;;;;;;;;2211815;59;23240;-70
2022/02/02 10:46:40;;;;;;;;;;;;;;;;;;2213464;66;25850;-70
2022/02/02 10:49:20;;;;;;;;;;;;;;;;;;2212936;59;18566;-70
2022/02/02 10:51:59;;;;;;;;;;;;;;;;;;2212287;66;26080;-70
2022/02/02 10:54:38;;;;;;;;;;;;;;;;;;2212764;59;15779;-70
2022/02/02 10:57:30;;;;;;;;;;;;;;;;;;2213635;64;15243;-70
2022/02/02 11:00:10;;;;;;;;;;;;;;;;;;2212747;59;16716;-70
2022/02/02 11:08:21;;;;;;;;;;;;;;;;;;2213062;59;24054;-70
2022/02/02 11:10:58;;;;;;;;;;;;;;;;;;2213038;63;20832;-70
2022/02/02 11:13:34;;;;;;;;;;;;;;;;;;2212456;59;22571;-71
2022/02/02 11:16:08;;;;;;;;;;;;;;;;;;2213864;59;19836;-70
2022/02/02 11:18:45;;;;;;;;;;;;;;;;;;2213480;59;18671;-70
2022/02/02 11:21:21;;;;;;;;;;;;;;;;;;2209833;59;18313;-70
2022/02/02 11:23:55;;;;;;;;;;;;;;;;;;2211421;59;22323;-70
2022/02/02 11:26:41;;;;;;;;;;;;;;;;;;2213517;59;16401;-70
2022/02/02 11:29:29;;;;;;;;;;;;;;;;;;2212592;59;15603;-70
2022/02/02 11:32:09;;;;;;;;;;;;;;;;;;2211012;59;17388;-71
2022/02/02 11:34:43;;;;;;;;;;;;;;;;;;2211744;59;16454;-70
2022/02/02 11:37:16;;;;;;;;;;;;;;;;;;2212327;66;19499;-71
2022/02/02 11:40:02;;;;;;;;;;;;;;;;;;2212258;59;23085;-70
2022/02/02 11:42:53;;;;;;;;;;;;;;;;;;2212251;59;34567;-70
2022/02/02 11:45:39;;;;;;;;;;;;;;;;;;2212139;59;20929;-71
2022/02/02 11:48:35;;;;;;;;;;;;;;;;;;2212139;59;15973;-70
2022/02/02 11:51:09;;;;;;;;;;;;;;;;;;2212931;59;17998;-70
2022/02/02 11:54:01;;;;;;;;;;;;;;;;;;2212028;66;17302;-71
2022/02/02 11:56:49;;;;;;;;;;;;;;;;;;2213148;66;17981;-70
2022/02/02 11:59:44;;;;;;;;;;;;;;;;;;2212331;59;23365;-70
2022/02/02 12:02:25;;;;;;;;;;;;;;;;;;2209880;59;15135;-70
2022/02/02 12:05:09;;;;;;;;;;;;;;;;;;2212538;59;25322;-70
2022/02/02 12:08:01;;;;;;;;;;;;;;;;;;2211323;59;22752;-70
2022/02/02 12:10:55;;;;;;;;;;;;;;;;;;2212485;59;26659;-70
2022/02/02 12:48:03;;;;;;;;;;;;;;;;;;2212973;66;15737;-71
2022/02/02 12:54:01;;;;;;;;;;;;;;;;;;2212370;66;18842;-71
2022/02/02 12:56:38;;;;;;;;;;;;;;;;;;2212246;59;14958;-71
2022/02/02 12:59:36;;;;;;;;;;;;;;;;;;2213094;59;24268;-70
2022/02/02 13:02:10;;;;;;;;;;;;;;;;;;2213236;63;28720;-71
2022/02/02 13:04:44;;;;;;;;;;;;;;;;;;2212118;59;15162;-70
2022/02/02 13:07:18;;;;;;;;;;;;;;;;;;2212554;59;13788;-71
2022/02/02 13:09:53;;;;;;;;;;;;;;;;;;2212741;63;18131;-71
2022/02/02 13:12:33;;;;;;;;;;;;;;;;;;2213522;66;16068;-71
2022/02/02 13:15:18;;;;;;;;;;;;;;;;;;2213794;59;16328;-71
2022/02/02 13:20:55;;;;;;;;;;;;;;;;;;2212223;59;27978;-71
2022/02/02 13:23:41;;;;;;;;;;;;;;;;;;2211832;59;18224;-73
2022/02/02 13:26:20;;;;;;;;;;;;;;;;;;2213345;66;29828;-71
2022/02/02 13:29:02;;;;;;;;;;;;;;;;;;2213706;59;18712;-70
2022/02/02 13:34:37;;;;;;;;;;;;;;;;;;2212191;63;24355;-71
2022/02/02 13:37:25;;;;;;;;;;;;;;;;;;2213268;59;16154;-71
2022/02/02 13:43:03;;;;;;;;;;;;;;;;;;2214523;59;19776;-71
2022/02/02 13:51:30;;;;;;;;;;;;;;;;;;2205702;59;28361;-70
2022/02/02 13:57:42;;;;;;;;;;;;;;;;;;2205741;64;15101;-71
2022/02/02 14:06:16;;;;;;;;;;;;;;;;;;2205155;59;37089;-70
2022/02/02 14:31:37;;;;;;;;;;;;;;;;;;2196472;59;15449;-71
2022/02/02 14:34:10;;;;;;;;;;;;;;;;;;2197389;59;15486;-70
2022/02/02 14:36:46;;;;;;;;;;;;;;;;;;2200121;59;21185;-70
2022/02/02 14:39:25;;;;;;;;;;;;;;;;;;2205576;59;18616;-71
2022/02/02 14:42:08;;;;;;;;;;;;;;;;;;2204697;63;22088;-71
2022/02/02 14:44:43;;;;;;;;;;;;;;;;;;2205164;59;16255;-71
2022/02/02 14:47:22;;;;;;;;;;;;;;;;;;2205608;67;14329;-70
2022/02/02 14:50:01;;;;;;;;;;;;;;;;;;2204979;59;15479;-70
2022/02/02 14:52:50;;;;;;;;;;;;;;;;;;2205905;67;16851;-70
2022/02/02 15:24:11;;;;;;;;;;;;;;;;;;2204219;59;18978;-71
2022/02/02 15:29:42;;;;;;;;;;;;;;;;;;2204839;59;14994;-70
2022/02/02 15:32:16;;;;;;;;;;;;;;;;;;2206186;59;19370;-70
2022/02/02 15:34:52;;;;;;;;;;;;;;;;;;2205547;59;21545;-70
2022/02/02 15:37:33;;;;;;;;;;;;;;;;;;2204512;59;20245;-70
2022/02/02 15:40:10;;;;;;;;;;;;;;;;;;2204945;59;16925;-70
2022/02/02 16:03:09;;;;;;;;;;;;;;;;;;2198209;59;24662;-70
2022/02/02 16:05:48;;;;;;;;;;;;;;;;;;2204368;64;22850;-70
2022/02/02 16:08:24;;;;;;;;;;;;;;;;;;2206010;59;17114;-70
2022/02/02 16:11:14;;;;;;;;;;;;;;;;;;2205401;59;15663;-71
2022/02/02 16:13:49;;;;;;;;;;;;;;;;;;2205332;67;22834;-70
2022/02/02 16:16:56;;;;;;;;;;;;;;;;;;2205453;67;17341;-70
2022/02/02 16:19:36;;;;;;;;;;;;;;;;;;2203930;59;19958;-70
2022/02/02 16:25:13;;;;;;;;;;;;;;;;;;2203691;59;15928;-70
2022/02/02 16:36:19;;;;;;;;;;;;;;;;;;2204483;59;18391;-70
2022/02/02 16:39:01;;;;;;;;;;;;;;;;;;2204301;59;17031;-70
2022/02/02 16:44:35;;;;;;;;;;;;;;;;;;2194133;59;24866;-70
2022/02/02 16:47:08;;;;;;;;;;;;;;;;;;2203342;59;22647;-72
2022/02/02 16:49:44;;;;;;;;;;;;;;;;;;2201156;59;22833;-70
2022/02/02 16:52:22;;;;;;;;;;;;;;;;;;2202151;59;17767;-70
2022/02/02 16:54:57;;;;;;;;;;;;;;;;;;2201526;60;22174;-70
2022/02/02 16:57:42;;;;;;;;;;;;;;;;;;2200923;59;19970;-70
2022/02/02 17:31:36;;;;;;;;;;;;;;;;;;2196322;59;18198;-69
2022/02/02 17:34:18;;;;;;;;;;;;;;;;;;2200911;67;24220;-69
2022/02/02 17:36:57;;;;;;;;;;;;;;;;;;2201762;59;29639;-70
2022/02/02 17:39:43;;;;;;;;;;;;;;;;;;2199998;59;18410;-69
2022/02/02 17:45:39;;;;;;;;;;;;;;;;;;2193125;59;15498;-72
2022/02/02 18:19:48;;;;;;;;;;;;;;;;;;2191466;59;35002;-70
2022/02/02 18:22:25;;;;;;;;;;;;;;;;;;2200300;59;16413;-69
2022/02/02 18:25:06;;;;;;;;;;;;;;;;;;2201227;59;23009;-70
2022/02/02 18:27:47;;;;;;;;;;;;;;;;;;2201497;59;16121;-70
2022/02/02 18:30:34;;;;;;;;;;;;;;;;;;2202506;59;17422;-70
2022/02/02 18:33:21;;;;;;;;;;;;;;;;;;2201796;67;16210;-70
2022/02/02 18:36:01;;;;;;;;;;;;;;;;;;2201069;59;19856;-70
2022/02/02 18:44:47;;;;;;;;;;;;;;;;;;2201254;59;17562;-70
2022/02/02 18:47:40;;;;;;;;;;;;;;;;;;2201637;59;19344;-69
2022/02/02 18:50:24;;;;;;;;;;;;;;;;;;2200796;59;19411;-70
2022/02/02 18:55:49;;;;;;;;;;;;;;;;;;2201111;59;25644;-69
2022/02/02 18:58:31;;;;;;;;;;;;;;;;;;2203138;59;15376;-70
2022/02/02 19:01:16;;;;;;;;;;;;;;;;;;2201224;59;15479;-70
2022/02/02 19:39:01;;;;;;;;;;;;;;;;;;2225372;58;22744;-68
2022/02/02 19:55:34;;;;;;;;;;;;;;;;;;2202918;59;23598;-69
2022/02/02 20:04:03;;;;;;;;;;;;;;;;;;2201901;59;19587;-70
2022/02/02 20:06:46;;;;;;;;;;;;;;;;;;2201806;59;16037;-70
2022/02/02 20:09:39;;;;;;;;;;;;;;;;;;2201545;59;18580;-70
2022/02/02 20:12:13;;;;;;;;;;;;;;;;;;2201439;59;19380;-70
2022/02/02 20:14:47;;;;;;;;;;;;;;;;;;2201191;59;14045;-70
2022/02/02 20:17:25;;;;;;;;;;;;;;;;;;2202415;59;20369;-70
2022/02/02 20:20:01;;;;;;;;;;;;;;;;;;2199437;67;25765;-69
2022/02/02 20:22:35;;;;;;;;;;;;;;;;;;2200877;67;15650;-69
2022/02/02 20:25:09;;;;;;;;;;;;;;;;;;2199908;59;19988;-70
2022/02/02 20:27:51;;;;;;;;;;;;;;;;;;2199471;59;16098;-70
2022/02/02 20:30:24;;;;;;;;;;;;;;;;;;2200542;59;24862;-69
2022/02/02 20:33:00;;;;;;;;;;;;;;;;;;2201287;59;20922;-70
2022/02/02 20:35:33;;;;;;;;;;;;;;;;;;2199153;59;17520;-70
2022/02/02 20:38:06;;;;;;;;;;;;;;;;;;2200141;59;22271;-70
2022/02/02 20:40:39;;;;;;;;;;;;;;;;;;2200434;59;13266;-70
2022/02/02 20:43:24;;;;;;;;;;;;;;;;;;2200327;59;15980;-70
2022/02/02 20:46:23;;;;;;;;;;;;;;;;;;2198660;67;30229;-69
2022/02/02 21:00:43;;;;;;;;;;;;;;;;;;2198931;59;16757;-69
2022/02/02 21:03:35;;;;;;;;;;;;;;;;;;2199653;59;17114;-69
2022/02/02 21:06:24;;;;;;;;;;;;;;;;;;2199233;67;24488;-70
2022/02/02 21:09:09;;;;;;;;;;;;;;;;;;2199610;59;15775;-70
2022/02/02 21:13:39;;;;;;;;;;;;;;;;;;2198910;64;19233;-70
2022/02/02 21:14:47;;;;;;;;;;;;;;;;;;2198515;59;19343;-70
2022/02/02 21:17:24;;;;;;;;;;;;;;;;;;2199637;59;19035;-70
2022/02/02 21:20:07;;;;;;;;;;;;;;;;;;2198711;64;20104;-70
2022/02/02 21:22:53;;;;;;;;;;;;;;;;;;2200180;59;25437;-70
2022/02/02 21:25:42;;;;;;;;;;;;;;;;;;2198882;59;24737;-69
2022/02/02 21:28:15;;;;;;;;;;;;;;;;;;2199146;59;17033;-69
2022/02/02 21:30:49;;;;;;;;;;;;;;;;;;2200604;59;18285;-69
2022/02/02 21:33:22;;;;;;;;;;;;;;;;;;2199589;59;18070;-69
2022/02/02 21:35:56;;;;;;;;;;;;;;;;;;2198265;67;29287;-69
2022/02/02 21:38:40;;;;;;;;;;;;;;;;;;2200432;59;14355;-69
2022/02/02 21:41:17;;;;;;;;;;;;;;;;;;2200537;59;15094;-69
2022/02/02 21:43:50;;;;;;;;;;;;;;;;;;2198909;59;22109;-70
2022/02/02 21:46:25;;;;;;;;;;;;;;;;;;2200698;59;18232;-70
2022/02/02 21:49:00;;;;;;;;;;;;;;;;;;2200255;59;17549;-70
2022/02/02 21:51:37;;;;;;;;;;;;;;;;;;2198240;59;18047;-70
2022/02/02 21:54:13;;;;;;;;;;;;;;;;;;2199048;59;29948;-70
2022/02/02 21:56:46;;;;;;;;;;;;;;;;;;2199356;67;32955;-70
2022/02/02 21:59:20;;;;;;;;;;;;;;;;;;2200045;59;14158;-70
2022/02/02 22:01:53;;;;;;;;;;;;;;;;;;2199269;67;29525;-70
2022/02/02 22:04:26;;;;;;;;;;;;;;;;;;2199691;59;15322;-70
2022/02/02 22:06:59;;;;;;;;;;;;;;;;;;2198876;59;14954;-71
2022/02/02 22:09:35;;;;;;;;;;;;;;;;;;2198843;67;24248;-70
2022/02/02 22:12:09;;;;;;;;;;;;;;;;;;2200662;64;14827;-69
2022/02/02 22:14:46;;;;;;;;;;;;;;;;;;2200640;59;14804;-70
2022/02/02 22:17:20;;;;;;;;;;;;;;;;;;2199611;64;15443;-70
2022/02/02 22:19:55;;;;;;;;;;;;;;;;;;2199202;59;21271;-69
2022/02/02 22:22:29;;;;;;;;;;;;;;;;;;2200747;67;19300;-70
2022/02/02 22:25:05;;;;;;;;;;;;;;;;;;2199634;59;24114;-70
2022/02/02 22:27:38;;;;;;;;;;;;;;;;;;2200691;59;22109;-70
2022/02/02 22:30:12;;;;;;;;;;;;;;;;;;2201468;63;18131;-70
2022/02/02 22:32:45;;;;;;;;;;;;;;;;;;2201174;59;17611;-70
2022/02/02 22:35:18;;;;;;;;;;;;;;;;;;2199339;67;18699;-70
2022/02/02 22:37:51;;;;;;;;;;;;;;;;;;2200653;67;17620;-70
2022/02/02 22:40:28;;;;;;;;;;;;;;;;;;2201322;59;18424;-70
2022/02/02 22:43:01;;;;;;;;;;;;;;;;;;2200337;59;20969;-70
2022/02/02 22:45:34;;;;;;;;;;;;;;;;;;2200229;59;15351;-70
2022/02/02 22:48:08;;;;;;;;;;;;;;;;;;2201780;59;25358;-70
2022/02/02 22:50:41;;;;;;;;;;;;;;;;;;2201598;59;16192;-70
2022/02/02 22:53:18;;;;;;;;;;;;;;;;;;2200013;67;15651;-69
2022/02/02 22:55:54;;;;;;;;;;;;;;;;;;2199138;59;27612;-70
2022/02/02 22:58:27;;;;;;;;;;;;;;;;;;2200124;67;27952;-70
2022/02/02 23:01:00;;;;;;;;;;;;;;;;;;2199849;59;20522;-70
2022/02/02 23:03:33;;;;;;;;;;;;;;;;;;2199420;59;24297;-70
2022/02/02 23:06:06;;;;;;;;;;;;;;;;;;2199266;59;15643;-70
2022/02/02 23:08:40;;;;;;;;;;;;;;;;;;2200415;59;21224;-70
2022/02/02 23:11:16;;;;;;;;;;;;;;;;;;2200304;59;26061;-70
2022/02/02 23:13:51;;;;;;;;;;;;;;;;;;2199731;59;15799;-70
2022/02/02 23:16:29;;;;;;;;;;;;;;;;;;2199442;59;20955;-70
2022/02/02 23:19:02;;;;;;;;;;;;;;;;;;2200161;59;27367;-70
2022/02/02 23:21:35;;;;;;;;;;;;;;;;;;2199107;59;18671;-70
2022/02/02 23:24:11;;;;;;;;;;;;;;;;;;2200208;59;14626;-70
2022/02/02 23:26:48;;;;;;;;;;;;;;;;;;2199724;59;17092;-70
2022/02/02 23:29:21;;;;;;;;;;;;;;;;;;2200224;59;15828;-70
2022/02/02 23:31:54;;;;;;;;;;;;;;;;;;2199159;59;34041;-70
2022/02/02 23:34:28;;;;;;;;;;;;;;;;;;2200746;64;16988;-70
2022/02/02 23:37:01;;;;;;;;;;;;;;;;;;2199814;64;15824;-70
2022/02/02 23:39:34;;;;;;;;;;;;;;;;;;2199910;59;16323;-70
2022/02/02 23:42:23;;;;;;;;;;;;;;;;;;2200768;67;19581;-70
2022/02/02 23:44:56;;;;;;;;;;;;;;;;;;2200703;59;15833;-70
2022/02/02 23:47:29;;;;;;;;;;;;;;;;;;2199294;59;23329;-71
2022/02/02 23:50:08;;;;;;;;;;;;;;;;;;2200950;67;15075;-70
2022/02/02 23:52:46;;;;;;;;;;;;;;;;;;2200992;67;16755;-70
2022/02/02 23:55:25;;;;;;;;;;;;;;;;;;2200150;59;25593;-70
2022/02/02 23:58:07;;;;;;;;;;;;;;;;;;2200280;59;16288;-70
